Time;durP1;ratioP1;P1;durP2;ratioP2;P2;SDS_P1;SDS_P2;PMS_P1;PMS_P2;Temp;Humidity;BMP_temperature;BMP_pressure;BME280_temperature;BME280_humidity;BME280_pressure;Samples;Min_cycle;Max_cycle;Signal;HPM_P1;HPM_P2
2021/07/12 00:02:05;;;;;;;8.43;7.63;;;24.10;99.90;;;;;;5116430;27;20183;-63
2021/07/12 00:04:30;;;;;;;8.33;7.27;;;24.00;99.90;;;;;;5134850;27;20211;-63
2021/07/12 00:06:56;;;;;;;8.53;7.73;;;24.00;99.90;;;;;;5134634;27;20183;-63
2021/07/12 00:09:21;;;;;;;8.10;7.30;;;23.90;99.90;;;;;;5116483;28;20218;-63
2021/07/12 00:11:47;;;;;;;8.83;7.77;;;23.90;99.90;;;;;;5134641;27;20660;-66
2021/07/12 00:14:13;;;;;;;10.10;8.10;;;23.90;99.90;;;;;;5116327;28;20183;-66
2021/07/12 00:16:39;;;;;;;7.40;6.70;;;23.90;99.90;;;;;;5134780;28;20771;-63
2021/07/12 00:19:05;;;;;;;7.67;6.63;;;23.80;99.90;;;;;;5134576;27;20927;-66
2021/07/12 00:21:31;;;;;;;8.20;7.40;;;23.80;99.90;;;;;;5134622;28;20415;-66
2021/07/12 00:23:58;;;;;;;8.70;7.90;;;23.70;99.90;;;;;;5134976;28;20246;-66
2021/07/12 00:26:23;;;;;;;9.50;6.90;;;23.70;99.90;;;;;;5116148;28;20450;-66
2021/07/12 00:28:49;;;;;;;7.97;7.17;;;23.70;99.90;;;;;;5134926;28;20436;-66
2021/07/12 00:31:15;;;;;;;8.10;7.33;;;23.60;99.90;;;;;;5134573;28;20202;-63
2021/07/12 00:33:41;;;;;;;8.37;7.67;;;23.60;99.90;;;;;;5134868;28;20233;-63
2021/07/12 00:36:07;;;;;;;7.80;7.17;;;23.60;99.90;;;;;;5115958;28;20274;-65
2021/07/12 00:38:33;;;;;;;8.80;7.00;;;23.50;99.90;;;;;;5135052;28;20233;-63
2021/07/12 00:40:59;;;;;;;7.27;6.50;;;23.50;99.90;;;;;;5134476;28;20424;-66
2021/07/12 00:43:25;;;;;;;7.70;7.00;;;23.50;99.90;;;;;;5116193;28;20222;-63
2021/07/12 00:45:51;;;;;;;8.93;8.13;;;23.50;99.90;;;;;;5134398;28;20920;-63
2021/07/12 00:48:17;;;;;;;9.77;6.70;;;23.40;99.90;;;;;;5134755;28;20206;-65
2021/07/12 00:50:44;;;;;;;11.43;7.90;;;23.40;99.90;;;;;;5134350;28;20431;-65
2021/07/12 00:53:11;;;;;;;8.90;7.37;;;23.40;99.90;;;;;;5116104;28;20946;-63
2021/07/12 00:55:42;;;;;;;9.80;8.80;;;23.40;99.90;;;;;;5134245;28;20785;-63
2021/07/12 00:58:11;;;;;;;8.37;7.57;;;23.40;99.90;;;;;;5134167;28;21042;-66
2021/07/12 01:00:38;;;;;;;8.60;7.77;;;23.30;99.90;;;;;;5134507;28;20480;-65
2021/07/12 01:03:04;;;;;;;8.93;8.13;;;23.30;99.90;;;;;;5115847;28;20455;-66
2021/07/12 01:05:31;;;;;;;9.83;7.70;;;23.30;99.90;;;;;;5134224;28;20455;-66
2021/07/12 01:07:58;;;;;;;9.53;8.30;;;23.20;99.90;;;;;;5134356;28;20163;-63
2021/07/12 01:10:25;;;;;;;10.97;7.70;;;23.20;99.90;;;;;;5134189;28;20987;-63
2021/07/12 01:12:57;;;;;;;9.73;8.03;;;23.20;99.90;;;;;;5134355;28;20509;-63
2021/07/12 01:15:28;;;;;;;10.10;7.90;;;23.20;99.90;;;;;;5134112;28;20423;-63
2021/07/12 01:18:20;;;;;;;12.43;8.53;;;23.20;99.90;;;;;;5134168;28;20422;-63
2021/07/12 01:21:15;;;;;;;10.27;7.90;;;23.10;99.90;;;;;;5115822;28;20955;-66
2021/07/12 01:24:03;;;;;;;8.53;7.73;;;23.10;99.90;;;;;;5115775;28;20467;-63
2021/07/12 01:26:29;;;;;;;10.17;7.30;;;23.00;99.90;;;;;;5115522;28;20458;-63
2021/07/12 01:29:18;;;;;;;9.40;8.50;;;23.00;99.90;;;;;;5134493;28;20416;-66
2021/07/12 01:31:46;;;;;;;8.83;8.03;;;23.00;99.90;;;;;;5135442;27;20268;-63
2021/07/12 01:34:26;;;;;;;10.33;8.97;;;22.90;99.90;;;;;;5137589;27;20799;-63
2021/07/12 01:36:57;;;;;;;9.00;8.20;;;22.90;99.90;;;;;;5119064;27;20446;-63
2021/07/12 01:39:28;;;;;;;9.23;8.33;;;22.90;99.90;;;;;;5137665;27;20987;-66
2021/07/12 01:42:07;;;;;;;8.90;8.03;;;22.80;99.90;;;;;;5137381;27;20915;-69
2021/07/12 01:44:52;;;;;;;9.30;8.40;;;22.80;99.90;;;;;;5137376;27;20458;-66
2021/07/12 01:47:36;;;;;;;10.47;9.07;;;22.80;99.90;;;;;;5137550;27;20753;-63
2021/07/12 01:50:23;;;;;;;8.50;7.70;;;22.80;99.90;;;;;;5137269;27;20812;-63
2021/07/12 01:53:08;;;;;;;10.10;9.10;;;22.80;99.90;;;;;;5137435;27;20451;-66
2021/07/12 01:55:56;;;;;;;9.97;8.40;;;22.80;99.90;;;;;;5137342;27;20946;-66
2021/07/12 01:58:49;;;;;;;9.90;8.90;;;22.70;99.90;;;;;;5137102;27;20469;-63
2021/07/12 02:01:15;;;;;;;11.33;8.67;;;22.70;99.90;;;;;;5137093;27;20435;-63
2021/07/12 02:03:43;;;;;;;9.63;8.73;;;22.70;99.90;;;;;;5137680;27;20462;-63
2021/07/12 02:06:10;;;;;;;10.03;8.67;;;22.60;99.90;;;;;;5136906;27;21045;-63
2021/07/12 02:08:45;;;;;;;9.53;8.63;;;22.60;99.90;;;;;;5136828;27;20767;-63
2021/07/12 02:11:13;;;;;;;11.33;8.60;;;22.50;99.90;;;;;;5136932;27;20510;-63
2021/07/12 02:13:40;;;;;;;9.13;8.00;;;22.50;99.90;;;;;;5118661;27;20419;-63
2021/07/12 02:16:06;;;;;;;9.43;8.40;;;22.50;99.90;;;;;;5136761;27;20947;-63
2021/07/12 02:18:34;;;;;;;9.53;8.33;;;22.40;99.90;;;;;;5137173;27;20774;-63
2021/07/12 02:21:01;;;;;;;8.67;7.77;;;22.40;99.90;;;;;;5136661;27;20415;-63
2021/07/12 02:23:27;;;;;;;9.77;8.77;;;22.40;99.90;;;;;;5118236;27;20478;-65
2021/07/12 02:25:54;;;;;;;9.67;8.03;;;22.40;99.90;;;;;;5136585;27;20932;-66
2021/07/12 02:28:21;;;;;;;12.83;9.30;;;22.30;99.90;;;;;;5136949;27;20419;-63
2021/07/12 02:30:47;;;;;;;10.33;9.30;;;22.30;99.90;;;;;;5136550;27;20421;-63
2021/07/12 02:33:17;;;;;;;10.13;9.13;;;22.20;99.90;;;;;;5136706;27;20419;-65
2021/07/12 02:35:44;;;;;;;11.70;9.30;;;22.20;99.90;;;;;;5117848;27;20427;-63
2021/07/12 02:38:10;;;;;;;9.13;8.30;;;22.20;99.90;;;;;;5136649;27;20407;-66
2021/07/12 02:40:37;;;;;;;10.23;8.97;;;22.20;99.90;;;;;;5136255;27;20419;-66
2021/07/12 02:43:04;;;;;;;9.20;8.23;;;22.20;99.90;;;;;;5117462;27;20829;-66
2021/07/12 02:45:32;;;;;;;10.87;9.07;;;22.20;99.90;;;;;;5136211;27;20422;-63
2021/07/12 02:47:58;;;;;;;10.63;9.67;;;22.20;99.90;;;;;;5117868;27;20931;-65
2021/07/12 02:50:27;;;;;;;9.70;8.70;;;22.20;99.90;;;;;;5133057;27;20929;-63
2021/07/12 02:52:56;;;;;;;9.93;8.70;;;22.10;99.90;;;;;;5097340;28;20439;-66
2021/07/12 02:55:22;;;;;;;9.87;8.90;;;22.20;99.90;;;;;;5126340;27;20446;-63
2021/07/12 02:57:47;;;;;;;10.00;9.10;;;22.20;99.90;;;;;;5134349;27;20455;-62
2021/07/12 03:00:14;;;;;;;9.70;8.60;;;22.20;99.90;;;;;;5133690;27;20191;-67
2021/07/12 03:02:40;;;;;;;10.37;8.93;;;22.20;99.90;;;;;;5133582;27;20210;-66
2021/07/12 03:05:08;;;;;;;9.20;8.37;;;22.30;99.90;;;;;;5133494;27;20467;-62
2021/07/12 03:08:05;;;;;;;11.53;9.50;;;22.20;99.90;;;;;;5133679;27;20514;-66
2021/07/12 03:10:36;;;;;;;11.50;8.70;;;22.20;99.90;;;;;;5128645;27;20503;-62
2021/07/12 03:13:05;;;;;;;9.40;8.40;;;22.20;99.90;;;;;;5133645;27;20403;-65
2021/07/12 03:15:47;;;;;;;11.70;9.27;;;22.20;99.90;;;;;;5116632;27;20538;-66
2021/07/12 03:18:40;;;;;;;13.50;9.60;;;22.20;99.90;;;;;;5117251;27;20558;-65
2021/07/12 03:21:05;;;;;;;12.93;9.70;;;22.20;99.90;;;;;;5135464;27;20467;-65
2021/07/12 03:23:44;;;;;;;11.60;9.27;;;22.30;99.90;;;;;;5117142;27;20512;-63
2021/07/12 03:26:11;;;;;;;9.17;8.27;;;22.30;99.90;;;;;;5135395;27;20438;-63
2021/07/12 03:28:38;;;;;;;11.10;9.63;;;22.30;99.90;;;;;;5135830;27;20411;-66
2021/07/12 03:31:06;;;;;;;11.27;10.07;;;22.40;99.90;;;;;;5135286;27;20812;-66
2021/07/12 03:33:33;;;;;;;10.60;9.50;;;22.40;99.90;;;;;;5135753;27;20744;-63
2021/07/12 03:36:00;;;;;;;10.30;9.30;;;22.30;99.90;;;;;;5135194;27;20953;-66
2021/07/12 03:38:26;;;;;;;10.00;8.53;;;22.30;99.90;;;;;;5135721;27;20411;-63
2021/07/12 03:40:52;;;;;;;13.37;9.47;;;22.40;99.90;;;;;;5135184;27;20442;-66
2021/07/12 03:43:18;;;;;;;10.77;9.73;;;22.40;99.90;;;;;;5116746;27;20547;-62
2021/07/12 03:45:56;;;;;;;10.70;9.50;;;22.40;99.90;;;;;;5135162;27;21011;-66
2021/07/12 03:48:36;;;;;;;12.03;10.80;;;22.50;99.90;;;;;;5135534;27;20515;-66
2021/07/12 03:51:05;;;;;;;10.73;9.50;;;22.50;99.90;;;;;;5134978;27;20419;-66
2021/07/12 03:53:32;;;;;;;10.50;9.40;;;22.50;99.90;;;;;;5116251;28;20795;-66
2021/07/12 03:55:58;;;;;;;11.77;10.60;;;22.50;99.90;;;;;;5116123;27;20523;-63
2021/07/12 03:58:24;;;;;;;12.73;9.67;;;22.50;99.90;;;;;;5134623;27;20483;-66
2021/07/12 04:00:49;;;;;;;11.23;10.07;;;22.50;99.90;;;;;;5134813;27;20916;-66
2021/07/12 04:03:15;;;;;;;11.83;10.03;;;22.50;99.90;;;;;;5134878;27;20182;-63
2021/07/12 04:05:40;;;;;;;10.70;9.60;;;22.50;99.90;;;;;;5134742;27;20183;-63
2021/07/12 04:08:06;;;;;;;15.13;9.80;;;22.50;99.90;;;;;;5134696;27;20183;-62
2021/07/12 04:10:32;;;;;;;11.30;10.20;;;22.60;99.90;;;;;;5134667;27;20275;-63
2021/07/12 04:12:57;;;;;;;12.70;10.77;;;22.60;99.90;;;;;;5134964;27;20171;-66
2021/07/12 04:15:23;;;;;;;10.97;9.80;;;22.60;99.90;;;;;;5134704;27;20188;-63
2021/07/12 04:17:49;;;;;;;14.43;10.73;;;22.60;99.90;;;;;;5134775;28;20183;-63
2021/07/12 04:20:15;;;;;;;11.17;10.00;;;22.60;99.90;;;;;;5133196;28;20240;-67
2021/07/12 04:22:42;;;;;;;11.47;10.17;;;22.60;99.90;;;;;;5132748;28;20780;-62
2021/07/12 04:25:08;;;;;;;10.80;9.57;;;22.60;99.90;;;;;;5113830;28;20471;-65
2021/07/12 04:27:36;;;;;;;10.90;9.80;;;22.70;99.90;;;;;;5132505;28;20411;-63
2021/07/12 04:30:03;;;;;;;11.43;9.70;;;22.80;99.90;;;;;;5134500;28;20514;-63
2021/07/12 04:32:28;;;;;;;10.77;9.60;;;22.80;99.90;;;;;;5134632;28;20488;-63
2021/07/12 04:34:54;;;;;;;11.77;9.97;;;22.80;99.90;;;;;;5116063;28;20407;-66
2021/07/12 04:37:20;;;;;;;11.43;9.20;;;22.90;99.90;;;;;;5134560;28;20699;-65
2021/07/12 04:39:45;;;;;;;11.43;10.23;;;23.00;99.90;;;;;;5134475;28;20602;-66
2021/07/12 04:42:11;;;;;;;11.67;10.40;;;23.00;99.90;;;;;;5116011;28;20203;-66
2021/07/12 04:44:36;;;;;;;16.17;14.50;;;23.00;99.90;;;;;;5134191;28;20332;-66
2021/07/12 04:47:02;;;;;;;11.70;10.60;;;23.10;99.90;;;;;;5134340;28;20215;-66
2021/07/12 04:49:28;;;;;;;14.57;13.07;;;23.10;99.90;;;;;;5134451;28;20172;-65
2021/07/12 04:51:53;;;;;;;11.90;10.57;;;23.10;99.90;;;;;;5115812;28;20278;-66
2021/07/12 04:54:20;;;;;;;13.43;11.30;;;23.20;99.90;;;;;;5134260;28;20577;-67
2021/07/12 04:56:45;;;;;;;11.83;10.63;;;23.20;99.90;;;;;;5133921;28;20282;-63
2021/07/12 04:59:12;;;;;;;11.60;10.10;;;23.20;99.90;;;;;;5115577;28;20543;-65
2021/07/12 05:01:38;;;;;;;11.13;10.03;;;23.20;99.90;;;;;;5134251;28;20190;-65
2021/07/12 05:04:05;;;;;;;10.20;9.20;;;23.30;99.90;;;;;;5115965;28;20981;-66
2021/07/12 05:06:31;;;;;;;10.70;9.70;;;23.30;99.90;;;;;;5117962;27;20605;-65
2021/07/12 05:08:57;;;;;;;9.83;8.83;;;23.30;99.90;;;;;;5117447;27;20502;-63
2021/07/12 05:11:24;;;;;;;12.07;10.00;;;23.40;99.90;;;;;;5136010;27;21048;-66
2021/07/12 05:13:50;;;;;;;11.13;9.67;;;23.50;99.90;;;;;;5136458;27;20904;-63
2021/07/12 05:16:16;;;;;;;11.47;10.37;;;23.50;99.90;;;;;;5117413;27;20446;-63
2021/07/12 05:18:42;;;;;;;12.20;10.93;;;23.60;99.90;;;;;;5137264;27;20408;-67
2021/07/12 05:21:07;;;;;;;12.70;11.50;;;23.70;99.90;;;;;;5136704;27;20191;-63
2021/07/12 05:23:33;;;;;;;11.00;9.90;;;23.70;99.90;;;;;;5135540;27;20308;-63
2021/07/12 05:25:59;;;;;;;12.67;10.87;;;23.80;99.90;;;;;;5136324;27;20548;-66
2021/07/12 05:28:24;;;;;;;12.37;11.17;;;23.90;99.90;;;;;;5114321;27;20706;-66
2021/07/12 05:30:50;;;;;;;11.73;10.60;;;23.90;99.90;;;;;;5133890;27;20200;-63
2021/07/12 05:33:16;;;;;;;11.10;10.00;;;24.00;99.90;;;;;;5134284;27;20183;-62
2021/07/12 05:35:42;;;;;;;11.83;9.90;;;24.00;99.90;;;;;;5133383;27;20209;-66
2021/07/12 05:38:09;;;;;;;11.57;10.10;;;24.10;99.90;;;;;;5115349;27;20443;-67
2021/07/12 05:40:35;;;;;;;11.77;10.37;;;24.10;99.90;;;;;;5132952;27;20208;-63
2021/07/12 05:43:01;;;;;;;11.07;9.97;;;24.20;99.90;;;;;;5132588;27;20517;-63
2021/07/12 05:45:27;;;;;;;10.53;9.63;;;24.20;99.90;;;;;;5129702;27;20578;-62
2021/07/12 05:47:53;;;;;;;11.53;10.40;;;24.30;99.90;;;;;;5125720;27;20821;-63
2021/07/12 05:50:19;;;;;;;12.27;11.00;;;24.30;99.90;;;;;;5133330;27;20200;-63
2021/07/12 05:52:45;;;;;;;11.50;10.30;;;24.40;99.90;;;;;;5125981;27;20845;-68
2021/07/12 05:55:12;;;;;;;13.37;10.30;;;24.40;99.90;;;;;;5132239;27;20445;-66
2021/07/12 05:57:37;;;;;;;11.83;10.57;;;24.40;99.90;;;;;;5112562;27;20217;-63
2021/07/12 06:00:06;;;;;;;11.10;10.00;;;24.60;99.90;;;;;;5135058;27;20475;-67
2021/07/12 06:02:32;;;;;;;11.27;9.93;;;24.60;99.90;;;;;;5135338;27;20192;-63
2021/07/12 06:04:58;;;;;;;13.83;12.53;;;24.70;99.90;;;;;;5111329;27;20480;-67
2021/07/12 06:07:23;;;;;;;13.77;11.10;;;24.70;99.90;;;;;;5128304;27;20196;-66
2021/07/12 06:09:49;;;;;;;12.33;11.13;;;24.80;99.90;;;;;;5132721;27;20261;-67
2021/07/12 06:12:15;;;;;;;12.47;11.13;;;24.90;99.90;;;;;;5129255;27;20193;-63
2021/07/12 06:14:40;;;;;;;12.13;11.00;;;25.00;99.90;;;;;;5133491;27;20178;-67
2021/07/12 06:17:06;;;;;;;11.97;10.70;;;25.10;99.90;;;;;;5130704;27;20190;-64
2021/07/12 06:19:31;;;;;;;12.73;11.43;;;25.10;99.90;;;;;;5134664;27;20239;-63
2021/07/12 06:21:57;;;;;;;13.20;10.83;;;25.20;99.90;;;;;;5132523;27;20691;-63
2021/07/12 06:24:23;;;;;;;12.43;11.17;;;25.30;99.90;;;;;;5131238;27;20610;-67
2021/07/12 06:26:48;;;;;;;12.80;11.60;;;25.30;99.90;;;;;;5133899;27;20263;-63
2021/07/12 06:29:14;;;;;;;13.67;12.27;;;25.40;99.90;;;;;;5115085;27;20189;-68
2021/07/12 06:31:40;;;;;;;12.67;11.47;;;25.40;99.90;;;;;;5127782;27;20215;-64
2021/07/12 06:34:05;;;;;;;12.30;11.10;;;25.40;99.90;;;;;;5131040;27;20198;-63
2021/07/12 06:36:31;;;;;;;12.93;11.63;;;25.50;99.90;;;;;;5133249;27;20206;-63
2021/07/12 06:38:56;;;;;;;19.93;12.60;;;25.50;99.90;;;;;;5112827;27;20683;-63
2021/07/12 06:41:22;;;;;;;137.17;112.57;;;25.50;99.90;;;;;;5110960;27;20206;-67
2021/07/12 06:43:49;;;;;;;13.43;12.07;;;25.50;99.90;;;;;;5126666;27;20217;-67
2021/07/12 06:46:14;;;;;;;13.52;12.32;;;25.60;99.90;;;;;;5110993;27;20415;-64
2021/07/12 06:48:40;;;;;;;18.40;12.77;;;25.60;99.90;;;;;;5112526;27;20186;-66
2021/07/12 06:51:06;;;;;;;12.33;11.13;;;25.70;99.90;;;;;;5130395;27;20198;-63
2021/07/12 06:53:32;;;;;;;13.73;12.43;;;25.70;99.90;;;;;;5112564;27;20186;-63
2021/07/12 06:55:58;;;;;;;13.90;12.60;;;25.80;99.90;;;;;;5130428;27;20198;-63
2021/07/12 06:58:23;;;;;;;13.77;12.40;;;25.90;99.90;;;;;;5132570;27;20543;-63
2021/07/12 07:00:49;;;;;;;16.37;13.67;;;26.00;99.90;;;;;;5132762;27;20605;-63
2021/07/12 07:03:14;;;;;;;15.23;12.23;;;26.10;99.90;;;;;;5130416;27;20194;-63
2021/07/12 07:05:40;;;;;;;13.83;12.40;;;26.20;99.90;;;;;;5114634;27;20294;-66
2021/07/12 07:08:06;;;;;;;14.80;12.50;;;26.30;99.90;;;;;;5127878;27;20221;-64
2021/07/12 07:10:31;;;;;;;14.25;12.85;;;26.30;99.90;;;;;;5114035;27;20448;-68
2021/07/12 07:12:57;;;;;;;14.57;13.27;;;26.40;99.90;;;;;;5132516;27;20218;-68
2021/07/12 07:15:23;;;;;;;12.93;11.77;;;26.50;99.90;;;;;;5113017;27;20203;-64
2021/07/12 07:17:48;;;;;;;13.33;12.03;;;26.60;99.90;;;;;;5112044;27;20190;-68
2021/07/12 07:20:14;;;;;;;17.90;13.10;;;26.60;99.90;;;;;;5108769;28;20204;-67
2021/07/12 07:22:40;;;;;;;14.97;12.70;;;26.60;99.90;;;;;;5120022;27;20582;-64
2021/07/12 07:25:06;;;;;;;13.80;12.50;;;26.60;99.90;;;;;;5113822;27;20229;-64
2021/07/12 07:27:32;;;;;;;14.13;13.00;;;26.70;99.90;;;;;;5128467;27;20394;-68
2021/07/12 07:29:58;;;;;;;14.70;13.20;;;26.60;99.90;;;;;;5130421;27;20510;-64
2021/07/12 07:32:24;;;;;;;15.30;13.50;;;26.60;99.90;;;;;;5128520;27;20432;-64
2021/07/12 07:34:49;;;;;;;15.50;13.90;;;26.60;99.90;;;;;;5124821;27;20492;-68
2021/07/12 07:37:16;;;;;;;14.60;13.03;;;26.60;99.90;;;;;;5125318;27;20187;-64
2021/07/12 07:39:42;;;;;;;14.27;13.07;;;26.70;99.90;;;;;;5124567;27;20179;-67
2021/07/12 07:42:07;;;;;;;14.37;13.00;;;26.70;99.90;;;;;;5111787;27;20458;-64
2021/07/12 07:44:33;;;;;;;15.23;13.83;;;26.80;99.90;;;;;;5130346;27;20289;-64
2021/07/12 07:46:59;;;;;;;14.77;13.17;;;26.80;99.90;;;;;;5134765;27;20198;-64
2021/07/12 07:49:25;;;;;;;14.40;13.03;;;26.80;99.90;;;;;;5121599;27;20597;-64
2021/07/12 07:51:51;;;;;;;15.40;13.80;;;26.90;99.90;;;;;;5131345;27;20281;-64
2021/07/12 07:54:16;;;;;;;14.27;12.87;;;27.00;99.90;;;;;;5116449;27;20534;-64
2021/07/12 07:56:43;;;;;;;15.17;13.57;;;27.10;99.90;;;;;;5127216;27;20199;-67
2021/07/12 07:59:09;;;;;;;14.20;12.80;;;27.10;99.90;;;;;;5115071;27;20677;-67
2021/07/12 08:01:35;;;;;;;16.37;14.63;;;27.20;99.90;;;;;;5131093;27;20435;-67
2021/07/12 08:04:01;;;;;;;13.80;12.57;;;27.20;99.90;;;;;;5107400;27;20563;-67
2021/07/12 08:06:27;;;;;;;14.90;13.53;;;27.30;99.90;;;;;;5137669;27;21007;-68
2021/07/12 08:08:53;;;;;;;17.17;15.50;;;27.40;99.90;;;;;;5127867;27;20175;-64
2021/07/12 08:11:18;;;;;;;15.70;14.30;;;27.40;99.90;;;;;;5129532;27;20454;-64
2021/07/12 08:13:44;;;;;;;15.53;14.17;;;27.50;99.90;;;;;;5129227;27;20195;-67
2021/07/12 08:16:10;;;;;;;16.77;15.00;;;27.60;99.90;;;;;;5110701;27;20418;-66
2021/07/12 08:18:35;;;;;;;15.73;14.40;;;27.60;99.90;;;;;;5127445;27;20518;-64
2021/07/12 08:21:01;;;;;;;15.80;14.20;;;27.70;99.90;;;;;;5132528;27;20210;-68
2021/07/12 08:23:27;;;;;;;15.47;14.13;;;27.70;99.90;;;;;;5107234;28;20699;-68
2021/07/12 08:25:53;;;;;;;15.03;13.63;;;27.80;99.90;;;;;;5132048;28;20812;-64
2021/07/12 08:28:19;;;;;;;18.73;16.40;;;27.80;99.90;;;;;;5131395;28;20191;-67
2021/07/12 08:30:45;;;;;;;16.67;15.20;;;27.90;99.90;;;;;;5111010;28;20515;-64
2021/07/12 08:33:12;;;;;;;19.67;14.70;;;28.00;99.90;;;;;;5124860;28;21024;-65
2021/07/12 08:35:38;;;;;;;15.93;14.60;;;28.10;99.90;;;;;;5106818;28;20813;-69
2021/07/12 08:38:04;;;;;;;16.30;14.80;;;28.20;99.90;;;;;;5127245;28;20438;-67
2021/07/12 08:40:30;;;;;;;17.00;15.20;;;28.20;99.90;;;;;;5127237;27;20442;-69
2021/07/12 08:42:57;;;;;;;17.50;16.00;;;28.30;99.90;;;;;;5116004;27;20782;-64
2021/07/12 08:45:24;;;;;;;16.70;15.20;;;28.40;99.90;;;;;;5132453;27;20558;-69
2021/07/12 08:47:51;;;;;;;16.53;15.03;;;28.50;99.90;;;;;;5132014;27;20427;-65
2021/07/12 08:50:17;;;;;;;17.90;16.40;;;28.50;99.90;;;;;;5135337;27;20458;-66
2021/07/12 08:52:44;;;;;;;18.73;16.90;;;28.60;99.90;;;;;;5117922;27;20464;-65
2021/07/12 08:55:11;;;;;;;15.90;14.60;;;28.70;99.90;;;;;;5135663;27;20914;-67
2021/07/12 08:57:36;;;;;;;17.00;15.50;;;28.70;99.90;;;;;;5118573;27;20442;-66
2021/07/12 09:00:05;;;;;;;17.03;15.53;;;28.80;99.90;;;;;;5119863;27;20504;-67
2021/07/12 09:02:32;;;;;;;18.20;16.30;;;28.90;99.90;;;;;;5131718;27;20612;-68
2021/07/12 09:04:58;;;;;;;17.87;15.50;;;29.00;99.90;;;;;;5129436;27;20515;-67
2021/07/12 09:07:29;;;;;;;17.63;15.83;;;29.10;99.90;;;;;;5134520;27;20433;-67
2021/07/12 09:10:04;;;;;;;16.63;15.00;;;29.10;99.90;;;;;;5130134;27;20578;-67
2021/07/12 09:12:51;;;;;;;17.13;15.60;;;29.20;99.90;;;;;;5125558;27;20416;-63
2021/07/12 09:15:22;;;;;;;16.07;14.40;;;29.30;99.90;;;;;;5129749;27;20451;-66
2021/07/12 09:17:53;;;;;;;16.83;15.40;;;29.30;99.90;;;;;;5132746;27;20469;-67
2021/07/12 09:20:32;;;;;;;16.90;15.17;;;29.30;99.90;;;;;;5115611;27;20430;-67
2021/07/12 09:22:58;;;;;;;22.00;15.37;;;29.30;99.90;;;;;;5134629;27;20474;-69
2021/07/12 09:25:30;;;;;;;16.70;15.10;;;29.30;99.90;;;;;;5110509;27;20474;-62
2021/07/12 09:27:56;;;;;;;19.27;17.17;;;29.40;99.90;;;;;;5111214;27;21077;-63
2021/07/12 09:30:22;;;;;;;16.93;14.80;;;29.50;99.90;;;;;;5111535;27;20424;-67
2021/07/12 09:32:51;;;;;;;15.43;14.13;;;29.50;99.90;;;;;;5135294;27;20951;-63
2021/07/12 09:35:18;;;;;;;16.63;15.07;;;29.60;99.90;;;;;;5107616;27;20209;-66
2021/07/12 09:37:56;;;;;;;16.03;14.53;;;29.70;99.90;;;;;;5128447;27;20524;-63
2021/07/12 09:40:21;;;;;;;18.40;15.93;;;29.80;99.90;;;;;;5110232;27;20505;-67
2021/07/12 09:42:49;;;;;;;15.93;14.50;;;29.90;99.90;;;;;;5118594;27;20426;-63
2021/07/12 09:45:18;;;;;;;15.70;14.30;;;29.90;99.90;;;;;;5123485;27;20245;-63
2021/07/12 09:47:45;;;;;;;16.70;15.00;;;30.00;99.90;;;;;;5132189;27;20428;-63
2021/07/12 09:50:19;;;;;;;16.50;15.00;;;30.10;99.90;;;;;;5131022;27;20453;-63
2021/07/12 09:53:00;;;;;;;16.90;15.40;;;30.20;99.90;;;;;;5133137;27;20453;-63
2021/07/12 09:55:26;;;;;;;17.80;16.20;;;30.30;99.90;;;;;;5122984;27;20527;-67
2021/07/12 09:58:12;;;;;;;16.90;15.17;;;30.30;99.90;;;;;;5130348;27;20516;-63
2021/07/12 10:00:40;;;;;;;17.10;15.43;;;30.40;99.90;;;;;;5128545;27;20651;-66
2021/07/12 10:03:06;;;;;;;16.93;14.93;;;30.40;99.90;;;;;;5132195;27;20480;-63
2021/07/12 10:05:32;;;;;;;17.30;15.77;;;30.40;99.90;;;;;;5131040;27;20476;-63
2021/07/12 10:07:59;;;;;;;16.17;14.73;;;30.40;99.90;;;;;;5128623;27;20185;-63
2021/07/12 10:10:24;;;;;;;16.60;15.10;;;30.50;99.90;;;;;;5123971;27;20953;-63
2021/07/12 10:12:52;;;;;;;16.20;14.80;;;30.50;99.90;;;;;;5110060;27;20438;-67
2021/07/12 10:15:19;;;;;;;16.23;14.63;;;30.50;99.90;;;;;;5124170;27;20249;-63
2021/07/12 10:17:46;;;;;;;16.13;14.63;;;30.60;99.90;;;;;;5126396;27;20445;-63
2021/07/12 10:20:13;;;;;;;16.50;14.90;;;30.60;99.90;;;;;;5132922;27;20493;-63
2021/07/12 10:22:41;;;;;;;16.23;14.90;;;30.60;99.90;;;;;;5113442;27;20468;-67
2021/07/12 10:25:15;;;;;;;16.20;14.80;;;30.60;99.90;;;;;;5133593;27;20524;-67
2021/07/12 10:28:01;;;;;;;16.70;15.00;;;30.60;99.90;;;;;;5115408;27;20421;-63
2021/07/12 10:30:53;;;;;;;17.40;15.70;;;30.60;99.90;;;;;;5133855;27;20519;-63
2021/07/12 10:33:32;;;;;;;16.53;15.20;;;30.70;99.90;;;;;;5110905;27;20792;-66
2021/07/12 10:35:57;;;;;;;17.20;15.80;;;30.70;99.90;;;;;;5131430;27;20805;-68
2021/07/12 10:38:43;;;;;;;17.70;16.23;;;30.80;99.90;;;;;;5135122;27;20428;-66
2021/07/12 10:41:23;;;;;;;16.57;14.97;;;30.90;99.90;;;;;;5117226;27;20592;-67
2021/07/12 10:43:53;;;;;;;15.83;14.43;;;30.80;99.90;;;;;;5133398;27;20474;-61
2021/07/12 10:46:28;;;;;;;16.37;14.67;;;30.80;99.90;;;;;;5104696;27;20519;-66
2021/07/12 10:49:32;;;;;;;16.50;14.90;;;30.90;99.90;;;;;;5134135;27;20961;-61
2021/07/12 10:51:57;;;;;;;16.90;15.40;;;30.90;99.90;;;;;;5111998;27;20447;-66
2021/07/12 10:54:24;;;;;;;17.10;15.20;;;30.90;99.90;;;;;;5123149;27;20551;-67
2021/07/12 10:56:59;;;;;;;17.43;15.90;;;30.90;99.90;;;;;;5107774;27;20200;-62
2021/07/12 10:59:40;;;;;;;17.00;15.50;;;31.00;99.90;;;;;;5114441;27;20473;-62
2021/07/12 11:02:15;;;;;;;16.27;15.00;;;31.10;99.90;;;;;;5103984;27;20478;-62
2021/07/12 11:04:52;;;;;;;18.07;16.37;;;31.10;99.90;;;;;;5128584;27;20467;-67
2021/07/12 11:07:37;;;;;;;16.17;14.67;;;31.10;99.90;;;;;;5107050;28;20858;-63
2021/07/12 11:10:03;;;;;;;19.00;16.20;;;31.10;99.90;;;;;;5127823;27;20465;-62
2021/07/12 11:12:34;;;;;;;17.87;16.37;;;31.10;99.90;;;;;;5119091;27;20860;-62
2021/07/12 11:15:24;;;;;;;17.10;15.50;;;31.20;99.90;;;;;;5131958;27;20458;-67
2021/07/12 11:18:00;;;;;;;16.87;15.40;;;31.10;99.90;;;;;;5123878;27;20426;-68
2021/07/12 11:20:53;;;;;;;16.17;14.20;;;31.20;99.90;;;;;;5129853;27;20529;-63
2021/07/12 11:23:45;;;;;;;17.17;15.57;;;31.20;99.90;;;;;;5123089;27;20462;-63
2021/07/12 11:26:29;;;;;;;17.00;15.40;;;31.30;99.90;;;;;;5082000;27;20443;-62
2021/07/12 11:29:01;;;;;;;16.07;14.77;;;31.30;99.90;;;;;;5130043;27;20435;-63
2021/07/12 11:31:41;;;;;;;16.17;14.50;;;31.40;99.90;;;;;;5126304;27;20818;-63
2021/07/12 11:34:28;;;;;;;25.70;14.93;;;31.40;99.90;;;;;;5131359;27;20454;-64
2021/07/12 11:36:58;;;;;;;15.87;14.50;;;31.40;99.90;;;;;;5116950;27;20488;-68
2021/07/12 11:39:27;;;;;;;15.87;14.40;;;31.50;99.90;;;;;;5128501;27;20448;-62
2021/07/12 11:41:53;;;;;;;17.00;15.60;;;31.50;99.90;;;;;;5128143;27;20536;-62
2021/07/12 11:44:20;;;;;;;17.13;14.93;;;31.50;99.90;;;;;;5109229;27;20455;-64
2021/07/12 11:46:46;;;;;;;15.60;14.10;;;31.50;99.90;;;;;;5114025;27;20529;-63
2021/07/12 11:49:16;;;;;;;15.80;14.40;;;31.50;99.90;;;;;;5130348;27;20443;-68
2021/07/12 11:51:43;;;;;;;16.20;14.90;;;31.60;99.90;;;;;;5121608;27;20450;-64
2021/07/12 11:54:23;;;;;;;14.43;13.23;;;31.70;99.90;;;;;;5109221;27;20458;-67
2021/07/12 11:57:00;;;;;;;14.80;13.40;;;31.70;99.90;;;;;;5131206;27;20806;-67
2021/07/12 11:59:32;;;;;;;14.10;12.90;;;31.70;99.90;;;;;;5111205;27;20803;-66
2021/07/12 12:02:00;;;;;;;14.97;13.40;;;31.70;99.90;;;;;;5128139;27;20578;-64
2021/07/12 12:04:39;;;;;;;16.00;14.70;;;31.70;99.90;;;;;;5111329;27;20458;-64
2021/07/12 12:07:24;;;;;;;16.33;14.83;;;31.80;99.90;;;;;;5126190;27;20411;-63
2021/07/12 12:10:01;;;;;;;16.13;14.80;;;31.70;99.90;;;;;;5123996;27;20429;-65
2021/07/12 12:12:33;;;;;;;15.50;14.30;;;31.80;99.90;;;;;;5119678;27;20442;-68
2021/07/12 12:15:07;;;;;;;15.80;14.60;;;31.80;99.90;;;;;;5107145;27;20419;-64
2021/07/12 12:17:38;;;;;;;15.60;14.13;;;31.80;99.90;;;;;;5106715;27;20422;-70
2021/07/12 12:20:20;;;;;;;15.93;14.57;;;31.80;99.90;;;;;;5105765;28;20519;-65
2021/07/12 12:23:09;;;;;;;15.30;14.00;;;31.80;99.80;;;;;;5126459;28;20671;-63
2021/07/12 12:25:45;;;;;;;16.57;14.97;;;31.90;99.90;;;;;;5101612;28;20483;-63
2021/07/12 12:28:20;;;;;;;14.40;13.13;;;31.90;99.80;;;;;;5118766;28;20422;-63
2021/07/12 12:30:46;;;;;;;13.63;12.63;;;31.90;99.60;;;;;;5103423;28;20447;-66
2021/07/12 12:33:13;;;;;;;13.60;12.50;;;31.90;99.60;;;;;;5131184;28;20779;-63
2021/07/12 12:35:39;;;;;;;14.13;12.73;;;31.90;99.70;;;;;;5128218;27;20198;-67
2021/07/12 12:38:13;;;;;;;13.83;12.73;;;32.00;99.50;;;;;;5132486;28;20522;-64
2021/07/12 12:40:39;;;;;;;15.30;14.00;;;32.00;99.10;;;;;;5127282;28;20205;-67
2021/07/12 12:43:17;;;;;;;15.33;14.00;;;32.10;99.60;;;;;;5111916;28;20419;-63
2021/07/12 12:45:58;;;;;;;14.87;13.63;;;32.10;99.90;;;;;;5110305;28;20454;-63